createdAt,value
2018-03-23T00:00:28.034Z,24.25
2018-03-23T00:02:55.553Z,24.05
2018-03-23T00:05:23.156Z,24.92
2018-03-23T00:07:50.673Z,21.75
2018-03-23T00:10:18.281Z,21.60
2018-03-23T00:12:45.796Z,23.87
2018-03-23T00:15:13.296Z,24.02
2018-03-23T00:17:40.815Z,22.55
2018-03-23T00:20:08.380Z,24.87
2018-03-23T00:22:35.903Z,24.48
2018-03-23T00:25:04.219Z,23.40
2018-03-23T00:27:31.732Z,20.10
2018-03-23T00:29:59.250Z,16.67
2018-03-23T00:32:26.778Z,18.87
2018-03-23T00:34:54.358Z,19.58
2018-03-23T00:37:21.879Z,23.45
2018-03-23T00:39:49.411Z,20.35
2018-03-23T00:42:16.977Z,23.08
2018-03-23T00:44:44.528Z,20.02
2018-03-23T00:47:12.058Z,21.95
2018-03-23T00:49:39.583Z,21.77
2018-03-23T00:52:07.868Z,22.20
2018-03-23T00:54:35.390Z,20.10
2018-03-23T00:57:02.913Z,17.42
2018-03-23T00:59:30.639Z,17.62
2018-03-23T01:01:58.196Z,18.40
2018-03-23T01:04:25.707Z,16.35
2018-03-23T01:06:53.979Z,17.45
2018-03-23T01:09:21.497Z,18.48
2018-03-23T01:11:49.787Z,19.37
2018-03-23T01:14:17.310Z,21.27
2018-03-23T01:16:44.856Z,15.52
2018-03-23T01:19:12.379Z,20.62
2018-03-23T01:21:39.906Z,15.52
2018-03-23T01:24:07.421Z,20.00
2018-03-23T01:26:34.928Z,19.08
2018-03-23T01:29:03.204Z,18.87
2018-03-23T01:31:31.584Z,17.35
2018-03-23T01:33:59.097Z,16.87
2018-03-23T01:36:26.595Z,18.25
2018-03-23T01:38:54.903Z,20.30
2018-03-23T01:41:22.428Z,17.55
2018-03-23T01:43:50.008Z,17.10
2018-03-23T01:46:17.513Z,22.35
2018-03-23T01:48:45.045Z,17.52
2018-03-23T01:51:12.583Z,18.35
2018-03-23T01:53:43.986Z,18.83
2018-03-23T01:56:11.543Z,18.65
2018-03-23T01:58:39.073Z,19.77
2018-03-23T02:01:06.577Z,21.85
2018-03-23T02:03:34.122Z,19.33
2018-03-23T02:06:01.695Z,18.42
2018-03-23T02:08:29.208Z,21.70
2018-03-23T02:10:56.834Z,20.17
2018-03-23T02:13:24.362Z,18.55
2018-03-23T02:15:52.657Z,19.05
2018-03-23T02:18:20.245Z,19.50
2018-03-23T02:20:47.810Z,17.08
2018-03-23T02:23:15.340Z,18.42
2018-03-23T02:25:42.858Z,22.13
2018-03-23T02:28:10.417Z,21.37
2018-03-23T02:30:37.954Z,19.75
2018-03-23T02:33:05.480Z,18.02
2018-03-23T02:35:33.767Z,17.92
2018-03-23T02:38:02.042Z,18.33
2018-03-23T02:40:30.323Z,19.35
2018-03-23T02:42:58.619Z,18.37
2018-03-23T02:45:26.136Z,19.15
2018-03-23T02:47:53.704Z,19.40
2018-03-23T02:50:21.227Z,20.65
2018-03-23T02:52:48.751Z,20.83
2018-03-23T02:55:16.271Z,21.75
2018-03-23T02:57:43.799Z,20.00
2018-03-23T03:00:11.326Z,20.05
2018-03-23T03:02:38.850Z,18.87
2018-03-23T03:05:06.365Z,21.55
2018-03-23T03:07:33.901Z,21.37
2018-03-23T03:10:01.456Z,19.40
2018-03-23T03:12:29.747Z,23.50
2018-03-23T03:14:58.042Z,22.92
2018-03-23T03:17:25.551Z,23.62
2018-03-23T03:19:53.064Z,20.48
2018-03-23T03:22:20.595Z,22.62
2018-03-23T03:24:48.881Z,22.73
2018-03-23T03:27:16.398Z,22.25
2018-03-23T03:29:43.916Z,18.55
2018-03-23T03:32:11.474Z,18.33
2018-03-23T03:34:38.987Z,21.58
2018-03-23T03:37:06.492Z,19.48
2018-03-23T03:39:34.014Z,20.60
2018-03-23T03:42:02.304Z,17.25
2018-03-23T03:44:30.571Z,18.02
2018-03-23T03:46:58.851Z,18.85
2018-03-23T03:49:27.161Z,18.70
2018-03-23T03:51:54.683Z,19.65
2018-03-23T03:54:22.202Z,19.90
2018-03-23T03:56:49.720Z,16.15
2018-03-23T03:59:18.015Z,20.20
2018-03-23T04:01:45.548Z,16.33
2018-03-23T04:04:13.058Z,19.02
2018-03-23T04:06:40.561Z,18.33
2018-03-23T04:09:08.833Z,18.27
2018-03-23T04:11:37.107Z,19.27
2018-03-23T04:14:04.633Z,20.77
2018-03-23T04:16:32.131Z,16.70
2018-03-23T04:18:59.675Z,16.25
2018-03-23T04:21:27.173Z,19.92
2018-03-23T04:23:54.698Z,17.15
2018-03-23T04:26:22.190Z,19.15
2018-03-23T04:28:49.708Z,17.80
2018-03-23T04:31:17.220Z,15.80
2018-03-23T04:33:44.742Z,15.88
2018-03-23T04:36:12.289Z,15.30
2018-03-23T04:38:39.814Z,18.60
2018-03-23T04:41:07.345Z,13.15
2018-03-23T04:43:34.932Z,17.90
2018-03-23T04:46:02.474Z,15.27
2018-03-23T04:48:29.990Z,14.25
2018-03-23T04:50:57.498Z,16.98
2018-03-23T04:53:25.028Z,16.40
2018-03-23T04:55:52.536Z,18.10
2018-03-23T04:58:20.048Z,16.10
2018-03-23T05:00:48.330Z,19.60
2018-03-23T05:03:16.639Z,18.42
2018-03-23T05:05:44.268Z,15.60
2018-03-23T05:08:12.536Z,17.02
2018-03-23T05:10:40.823Z,16.15
2018-03-23T05:13:08.331Z,16.55
2018-03-23T05:15:35.845Z,15.48
2018-03-23T05:18:04.114Z,15.45
2018-03-23T05:20:31.653Z,17.37
2018-03-23T05:22:59.158Z,15.95
2018-03-23T05:25:26.785Z,14.65
2018-03-23T05:27:55.078Z,14.63
2018-03-23T05:30:22.640Z,17.58
2018-03-23T05:32:50.194Z,16.85
2018-03-23T05:35:17.742Z,15.32
2018-03-23T05:37:45.240Z,19.10
2018-03-23T05:40:12.765Z,17.30
2018-03-23T05:42:41.044Z,17.67
2018-03-23T05:45:09.316Z,18.70
2018-03-23T05:47:37.622Z,16.70
2018-03-23T05:50:05.124Z,20.10
2018-03-23T05:52:32.645Z,20.05
2018-03-23T05:55:00.216Z,19.62
2018-03-23T05:57:27.845Z,18.60
2018-03-23T05:59:56.133Z,17.85
2018-03-23T06:02:23.659Z,20.10
2018-03-23T06:04:51.191Z,21.45
2018-03-23T06:07:18.853Z,20.67
2018-03-23T06:09:46.380Z,19.02
2018-03-23T06:12:13.906Z,16.50
2018-03-23T06:14:41.416Z,20.88
2018-03-23T06:17:08.933Z,19.40
2018-03-23T06:19:37.245Z,22.83
2018-03-23T06:22:04.814Z,22.87
2018-03-23T06:24:32.336Z,19.73
2018-03-23T06:27:00.629Z,20.00
2018-03-23T06:29:28.156Z,22.20
2018-03-23T06:31:55.669Z,16.75
2018-03-23T06:34:23.186Z,20.58
2018-03-23T06:36:51.496Z,20.85
2018-03-23T06:39:19.019Z,22.55
2018-03-23T06:41:46.570Z,19.52
2018-03-23T06:44:14.861Z,19.58
2018-03-23T06:46:43.139Z,20.58
2018-03-23T06:49:11.420Z,20.73
2018-03-23T06:51:39.783Z,24.17
2018-03-23T06:54:07.391Z,17.87
2018-03-23T06:56:34.958Z,20.40
2018-03-23T06:59:02.478Z,22.05
2018-03-23T07:01:30.754Z,22.58
2018-03-23T07:03:59.098Z,19.52
2018-03-23T07:06:26.605Z,22.00
2018-03-23T07:08:54.256Z,26.23
2018-03-23T07:11:21.774Z,21.65
2018-03-23T07:13:50.088Z,22.62
2018-03-23T07:16:18.360Z,22.08
2018-03-23T07:18:46.645Z,21.05
2018-03-23T07:21:14.981Z,23.52
2018-03-23T07:23:42.526Z,26.75
2018-03-23T07:26:10.111Z,24.48
2018-03-23T07:28:37.635Z,24.40
2018-03-23T07:31:05.149Z,26.52
2018-03-23T07:33:33.437Z,28.30
2018-03-23T07:36:01.712Z,24.05
2018-03-23T07:38:30.003Z,25.10
2018-03-23T07:40:57.507Z,25.67
2018-03-23T07:43:25.065Z,24.63
2018-03-23T07:45:52.682Z,20.70
2018-03-23T07:48:20.183Z,23.58
2018-03-23T07:50:49.977Z,19.02
2018-03-23T07:53:19.137Z,24.20
2018-03-23T07:55:46.707Z,23.92
2018-03-23T07:58:15.016Z,25.15
2018-03-23T08:00:42.556Z,19.65
2018-03-23T08:03:10.104Z,23.15
2018-03-23T08:05:38.443Z,25.70
2018-03-23T08:08:05.983Z,24.60
2018-03-23T08:10:33.829Z,25.80
2018-03-23T08:13:01.364Z,28.08
2018-03-23T08:15:28.910Z,18.10
2018-03-23T08:17:56.445Z,25.92
2018-03-23T08:20:24.736Z,27.27
2018-03-23T08:22:52.282Z,27.90
2018-03-23T08:25:19.833Z,24.48
2018-03-23T08:27:47.381Z,23.60
2018-03-23T08:30:14.908Z,26.52
2018-03-23T08:32:42.438Z,23.12
2018-03-23T08:35:09.995Z,22.70
2018-03-23T08:37:37.539Z,22.85
2018-03-23T08:40:05.850Z,26.87
2018-03-23T08:42:34.155Z,27.75
2018-03-23T08:45:01.667Z,23.80
2018-03-23T08:47:29.236Z,22.83
2018-03-23T08:49:56.788Z,23.08
2018-03-23T08:52:24.309Z,23.75
2018-03-23T08:54:51.834Z,27.35
2018-03-23T08:57:20.145Z,27.23
2018-03-23T08:59:47.670Z,24.15
2018-03-23T09:02:15.198Z,21.70
2018-03-23T09:04:42.721Z,23.27
2018-03-23T09:07:10.246Z,21.52
2018-03-23T09:09:37.831Z,19.23
2018-03-23T09:12:05.333Z,20.33
2018-03-23T09:14:32.854Z,24.17
2018-03-23T09:17:00.382Z,27.62
2018-03-23T09:19:28.706Z,25.48
2018-03-23T09:21:56.253Z,21.55
2018-03-23T09:24:23.759Z,22.55
2018-03-23T09:26:51.373Z,25.50
2018-03-23T09:29:18.879Z,24.15
2018-03-23T09:31:46.400Z,26.92
2018-03-23T09:34:13.945Z,23.10
2018-03-23T09:36:41.460Z,23.73
2018-03-23T09:39:08.963Z,22.55
2018-03-23T09:41:36.498Z,22.13
2018-03-23T09:44:04.029Z,19.25
2018-03-23T09:46:31.589Z,20.67
2018-03-23T09:48:59.136Z,25.77
2018-03-23T09:51:26.667Z,21.70
2018-03-23T09:53:54.200Z,26.67
2018-03-23T09:56:21.770Z,21.85
2018-03-23T09:58:49.269Z,22.95
2018-03-23T10:01:16.778Z,25.12
2018-03-23T10:03:44.400Z,24.48
2018-03-23T10:06:12.640Z,26.05
2018-03-23T10:08:40.164Z,24.83
2018-03-23T10:11:07.733Z,25.62
2018-03-23T10:13:36.016Z,34.83
2018-03-23T10:16:04.313Z,26.52
2018-03-23T10:18:31.850Z,23.30
2018-03-23T10:21:00.200Z,29.80
2018-03-23T10:23:27.698Z,29.02
2018-03-23T10:25:55.301Z,26.08
2018-03-23T10:28:22.823Z,26.02
2018-03-23T10:30:50.363Z,27.02
2018-03-23T10:33:17.892Z,26.85
2018-03-23T10:35:46.183Z,28.08
2018-03-23T10:38:13.700Z,23.58
2018-03-23T10:40:41.234Z,27.27
2018-03-23T10:43:08.830Z,51.92
2018-03-23T10:45:36.332Z,26.02
2018-03-23T10:48:03.860Z,25.05
2018-03-23T10:50:31.412Z,24.10
2018-03-23T10:52:59.003Z,30.77
2018-03-23T10:55:26.518Z,25.10
2018-03-23T10:57:54.070Z,28.00
2018-03-23T11:00:36.492Z,23.40
2018-03-23T11:03:03.998Z,25.08
2018-03-23T11:05:32.295Z,27.23
2018-03-23T11:07:59.823Z,27.77
2018-03-23T11:10:27.361Z,23.25
2018-03-23T11:12:54.883Z,24.95
2018-03-23T11:15:22.407Z,22.62
2018-03-23T11:17:49.990Z,24.73
2018-03-23T11:20:17.492Z,28.23
2018-03-23T11:22:45.018Z,22.98
2018-03-23T11:25:12.528Z,21.77
2018-03-23T11:27:40.058Z,25.02
2018-03-23T11:30:07.572Z,23.33
2018-03-23T11:32:35.101Z,23.98
2018-03-23T11:35:02.601Z,21.90
2018-03-23T11:37:30.880Z,32.13
2018-03-23T11:39:59.178Z,22.08
2018-03-23T11:42:26.770Z,20.95
2018-03-23T11:44:54.308Z,22.77
2018-03-23T11:47:21.823Z,21.83
2018-03-23T11:49:49.359Z,21.85
2018-03-23T11:52:16.882Z,21.65
2018-03-23T11:54:44.410Z,20.55
2018-03-23T11:57:11.928Z,23.73
2018-03-23T11:59:39.454Z,24.67
2018-03-23T12:02:07.046Z,23.25
2018-03-23T12:04:34.555Z,23.80
2018-03-23T12:07:02.832Z,20.30
2018-03-23T12:09:31.112Z,22.90
2018-03-23T12:11:59.389Z,24.77
2018-03-23T12:14:27.726Z,19.83
2018-03-23T12:16:55.247Z,22.15
2018-03-23T12:19:22.774Z,22.08
2018-03-23T12:21:51.092Z,19.27
2018-03-23T12:24:18.598Z,25.73
2018-03-23T12:26:46.172Z,22.27
2018-03-23T12:29:13.703Z,24.73
2018-03-23T12:31:41.225Z,20.02
2018-03-23T12:34:08.762Z,18.90
2018-03-23T12:36:36.277Z,21.42
2018-03-23T12:39:03.788Z,18.15
2018-03-23T12:41:31.317Z,26.65
2018-03-23T12:43:59.616Z,21.08
2018-03-23T12:46:27.144Z,18.02
2018-03-23T12:48:54.673Z,22.23
2018-03-23T12:51:22.246Z,21.08
2018-03-23T12:53:49.772Z,22.30
2018-03-23T12:56:17.317Z,23.42
2018-03-23T12:58:45.657Z,21.65
2018-03-23T13:01:13.190Z,16.42
2018-03-23T13:03:40.826Z,24.00
2018-03-23T13:06:08.359Z,17.62
2018-03-23T13:08:36.673Z,20.20
2018-03-23T13:11:04.258Z,17.37
2018-03-23T13:13:31.882Z,23.55
2018-03-23T13:15:59.430Z,18.37
2018-03-23T13:18:27.774Z,21.95
2018-03-23T13:20:55.297Z,17.90
2018-03-23T13:23:22.829Z,20.65
2018-03-23T13:25:50.347Z,22.95
2018-03-23T13:28:17.911Z,18.02
2018-03-23T13:30:45.447Z,25.08
2018-03-23T13:33:12.971Z,20.62
2018-03-23T13:35:40.560Z,20.75
2018-03-23T13:38:08.082Z,17.50
2018-03-23T13:40:35.590Z,20.48
2018-03-23T13:43:03.130Z,18.08
2018-03-23T13:45:30.653Z,22.45
2018-03-23T13:47:58.159Z,19.25
2018-03-23T13:50:25.737Z,17.95
2018-03-23T13:52:53.251Z,23.00
2018-03-23T13:55:20.791Z,24.27
2018-03-23T13:57:49.079Z,25.90
2018-03-23T14:00:31.483Z,18.73
2018-03-23T14:02:59.796Z,20.17
2018-03-23T14:05:27.349Z,21.15
2018-03-23T14:07:54.934Z,18.62
2018-03-23T14:10:22.478Z,19.83
2018-03-23T14:12:49.991Z,19.20
2018-03-23T14:15:18.312Z,18.92
2018-03-23T14:17:45.838Z,17.77
2018-03-23T14:20:14.143Z,22.70
2018-03-23T14:22:41.678Z,19.95
2018-03-23T14:25:09.987Z,19.83
2018-03-23T14:27:37.502Z,24.08
2018-03-23T14:30:05.023Z,17.73
2018-03-23T14:32:32.546Z,22.95
2018-03-23T14:35:00.093Z,21.83
2018-03-23T14:37:28.368Z,19.20
2018-03-23T14:39:55.886Z,19.92
2018-03-23T14:42:23.419Z,21.17
2018-03-23T14:44:50.941Z,23.15
2018-03-23T14:47:18.481Z,22.67
2018-03-23T14:49:46.028Z,20.35
2018-03-23T14:52:13.537Z,25.12
2018-03-23T14:54:41.071Z,25.08
2018-03-23T14:57:09.389Z,23.00
2018-03-23T14:59:36.895Z,26.10
2018-03-23T15:02:04.445Z,28.10
2018-03-23T15:04:32.026Z,28.35
2018-03-23T15:06:59.575Z,25.12
2018-03-23T15:09:28.141Z,27.02
2018-03-23T15:11:55.685Z,25.52
2018-03-23T15:14:23.204Z,25.65
2018-03-23T15:16:51.473Z,30.55
2018-03-23T15:19:19.750Z,26.60
2018-03-23T15:21:48.081Z,25.42
2018-03-23T15:24:15.582Z,25.35
2018-03-23T15:26:43.145Z,27.00
2018-03-23T15:29:11.447Z,30.73
2018-03-23T15:31:39.001Z,34.33
2018-03-23T15:34:06.529Z,28.05
2018-03-23T15:36:34.048Z,25.23
2018-03-23T15:39:01.596Z,29.92
2018-03-23T15:41:29.209Z,31.33
2018-03-23T15:43:56.712Z,28.00
2018-03-23T15:46:24.256Z,35.15
2018-03-23T15:48:51.785Z,34.63
2018-03-23T15:51:19.315Z,29.00
2018-03-23T15:53:46.832Z,35.13
2018-03-23T15:56:14.363Z,32.80
2018-03-23T15:58:42.045Z,32.88
2018-03-23T16:01:09.563Z,30.10
2018-03-23T16:03:37.096Z,35.05
2018-03-23T16:06:04.751Z,30.00
2018-03-23T16:08:32.311Z,31.35
2018-03-23T16:10:59.922Z,32.05
2018-03-23T16:13:27.448Z,30.70
2018-03-23T16:15:54.992Z,33.72
2018-03-23T16:18:22.520Z,28.80
2018-03-23T16:20:50.122Z,33.63
2018-03-23T16:23:17.653Z,32.90
2018-03-23T16:25:45.207Z,33.90
2018-03-23T16:28:13.527Z,33.25
2018-03-23T16:30:41.066Z,33.20
2018-03-23T16:33:08.601Z,31.05
2018-03-23T16:35:36.875Z,34.05
2018-03-23T16:38:05.155Z,31.60
2018-03-23T16:40:33.446Z,37.42
2018-03-23T16:43:01.786Z,33.22
2018-03-23T16:45:29.306Z,31.85
2018-03-23T16:47:56.846Z,35.78
2018-03-23T16:50:25.138Z,30.40
2018-03-23T16:52:52.754Z,31.00
2018-03-23T16:55:20.284Z,35.42
2018-03-23T16:57:47.828Z,29.30
2018-03-23T17:00:15.359Z,39.50
2018-03-23T17:02:43.635Z,42.15
2018-03-23T17:05:12.038Z,40.70
2018-03-23T17:07:39.555Z,40.15
2018-03-23T17:10:07.068Z,39.25
2018-03-23T17:12:34.721Z,38.88
2018-03-23T17:15:02.187Z,39.05
2018-03-23T17:17:29.693Z,35.78
2018-03-23T17:19:57.208Z,47.72
2018-03-23T17:22:24.731Z,39.17
2018-03-23T17:24:53.018Z,44.85
2018-03-23T17:27:20.563Z,41.60
2018-03-23T17:29:48.124Z,34.75
2018-03-23T17:32:16.439Z,34.08
2018-03-23T17:34:44.034Z,35.88
2018-03-23T17:37:11.549Z,37.45
2018-03-23T17:39:39.057Z,38.28
2018-03-23T17:42:06.606Z,32.28
2018-03-23T17:44:34.132Z,36.70
2018-03-23T17:47:01.669Z,33.10
2018-03-23T17:49:29.970Z,35.53
2018-03-23T17:51:57.487Z,38.60
2018-03-23T17:54:25.874Z,37.85
2018-03-23T17:56:53.455Z,36.67
2018-03-23T17:59:21.024Z,34.75
2018-03-23T18:01:48.554Z,42.05
2018-03-23T18:04:16.871Z,34.90
2018-03-23T18:06:44.392Z,32.25
2018-03-23T18:09:12.830Z,33.38
2018-03-23T18:11:40.356Z,31.25
2018-03-23T18:14:07.954Z,38.92
2018-03-23T18:16:35.477Z,34.10
2018-03-23T18:19:02.983Z,36.70
2018-03-23T18:21:30.494Z,31.20
2018-03-23T18:23:58.010Z,36.88
2018-03-23T18:26:25.570Z,39.95
2018-03-23T18:28:53.095Z,39.90
2018-03-23T18:31:20.639Z,30.70
2018-03-23T18:33:48.266Z,34.00
2018-03-23T18:36:15.859Z,41.10
2018-03-23T18:38:43.382Z,31.30
2018-03-23T18:41:10.947Z,29.17
2018-03-23T18:43:39.238Z,44.20
2018-03-23T18:46:07.540Z,32.35
2018-03-23T18:48:35.065Z,35.22
2018-03-23T18:51:02.611Z,37.80
2018-03-23T18:53:30.174Z,35.80
2018-03-23T18:55:57.696Z,34.00
2018-03-23T18:58:25.439Z,38.42
2018-03-23T19:00:55.488Z,28.10
2018-03-23T19:03:23.809Z,29.05
2018-03-23T19:05:52.159Z,37.25
2018-03-23T19:08:19.695Z,33.80
2018-03-23T19:10:47.272Z,31.30
2018-03-23T19:13:14.813Z,26.50
2018-03-23T19:15:42.351Z,28.12
2018-03-23T19:18:09.898Z,29.50
2018-03-23T19:20:37.439Z,28.30
2018-03-23T19:23:05.754Z,30.20
2018-03-23T19:25:33.300Z,29.65
2018-03-23T19:28:00.851Z,28.87
2018-03-23T19:30:29.123Z,30.62
2018-03-23T19:32:57.412Z,33.78
2018-03-23T19:35:24.952Z,29.55
2018-03-23T19:37:53.243Z,27.92
2018-03-23T19:40:20.803Z,30.42
2018-03-23T19:42:48.333Z,29.92
2018-03-23T19:45:15.880Z,33.20
2018-03-23T19:47:43.453Z,33.35
2018-03-23T19:50:10.982Z,33.58
2018-03-23T19:52:38.531Z,32.65
2018-03-23T19:55:06.195Z,32.47
2018-03-23T19:57:33.764Z,35.47
2018-03-23T20:00:01.340Z,35.08
2018-03-23T20:02:28.861Z,38.10
2018-03-23T20:04:56.379Z,34.53
2018-03-23T20:07:24.818Z,40.45
2018-03-23T20:09:52.343Z,38.45
2018-03-23T20:12:20.629Z,32.88
2018-03-23T20:14:48.170Z,35.47
2018-03-23T20:17:16.146Z,38.15
2018-03-23T20:19:44.465Z,30.45
2018-03-23T20:22:11.980Z,38.05
2018-03-23T20:24:39.503Z,34.90
2018-03-23T20:27:12.738Z,46.13
2018-03-23T20:29:41.012Z,32.35
2018-03-23T20:32:15.040Z,37.28
2018-03-23T20:34:42.553Z,34.28
2018-03-23T20:37:10.086Z,37.70
2018-03-23T20:39:37.662Z,37.58
2018-03-23T20:42:05.239Z,33.58
2018-03-23T20:44:32.790Z,38.85
2018-03-23T20:47:00.318Z,38.42
2018-03-23T20:49:27.850Z,56.58
2018-03-23T20:51:55.551Z,42.67
2018-03-23T20:54:23.094Z,38.25
2018-03-23T20:56:50.599Z,43.40
2018-03-23T20:59:18.202Z,45.20
2018-03-23T21:01:45.790Z,38.35
2018-03-23T21:04:13.300Z,39.08
2018-03-23T21:06:40.916Z,38.00
2018-03-23T21:09:08.519Z,43.47
2018-03-23T21:11:36.800Z,43.97
2018-03-23T21:14:05.111Z,43.10
2018-03-23T21:16:32.784Z,48.28
2018-03-23T21:19:00.321Z,41.55
2018-03-23T21:21:27.837Z,40.10
2018-03-23T21:23:55.358Z,49.45
2018-03-23T21:26:23.723Z,44.97
2018-03-23T21:28:51.252Z,42.35
2018-03-23T21:31:19.564Z,43.20
2018-03-23T21:33:47.113Z,38.22
2018-03-23T21:36:14.696Z,43.87
2018-03-23T21:38:42.209Z,46.80
2018-03-23T21:41:09.860Z,40.12
2018-03-23T21:43:37.380Z,43.28
2018-03-23T21:46:04.903Z,40.70
2018-03-23T21:48:33.214Z,40.88
2018-03-23T21:51:00.742Z,39.40
2018-03-23T21:53:28.267Z,38.67
2018-03-23T21:55:55.789Z,51.22
2018-03-23T21:58:23.317Z,34.13
2018-03-23T22:00:50.839Z,43.40
2018-03-23T22:03:18.408Z,38.78
2018-03-23T22:05:45.921Z,43.15
2018-03-23T22:08:13.448Z,34.50
2018-03-23T22:10:41.741Z,33.58
2018-03-23T22:13:10.050Z,37.08
2018-03-23T22:15:37.597Z,39.97
2018-03-23T22:18:05.131Z,43.55
2018-03-23T22:20:32.649Z,36.42
2018-03-23T22:23:00.193Z,37.25
2018-03-23T22:25:27.731Z,35.47
2018-03-23T22:27:55.369Z,36.25
2018-03-23T22:30:22.922Z,39.97
2018-03-23T22:32:51.219Z,34.45
2018-03-23T22:35:18.757Z,34.17
2018-03-23T22:37:47.042Z,36.40
2018-03-23T22:40:15.335Z,38.15
2018-03-23T22:42:43.614Z,31.95
2018-03-23T22:45:11.126Z,39.28
2018-03-23T22:47:38.648Z,33.92
2018-03-23T22:50:06.180Z,31.25
2018-03-23T22:52:34.469Z,34.63
2018-03-23T22:55:02.028Z,39.70
2018-03-23T22:57:29.587Z,34.00
2018-03-23T22:59:57.119Z,30.12
2018-03-23T23:02:24.643Z,32.67
2018-03-23T23:04:52.150Z,37.97
2018-03-23T23:07:20.471Z,31.48
2018-03-23T23:09:48.003Z,34.40
2018-03-23T23:12:15.734Z,31.25
2018-03-23T23:14:43.300Z,36.95
2018-03-23T23:17:10.822Z,31.33
2018-03-23T23:19:38.437Z,29.90
2018-03-23T23:28:13.355Z,30.70
2018-03-23T23:30:40.870Z,34.40
2018-03-23T23:33:09.193Z,28.60
2018-03-23T23:35:36.723Z,31.00
2018-03-23T23:38:04.245Z,34.42
2018-03-23T23:40:31.836Z,31.25
2018-03-23T23:42:59.365Z,26.42
2018-03-23T23:45:26.925Z,26.55
2018-03-23T23:47:54.426Z,34.92
2018-03-23T23:50:21.928Z,25.80
2018-03-23T23:52:49.472Z,28.77
2018-03-23T23:55:17.136Z,33.25
2018-03-23T23:57:44.675Z,27.02
